createdAt,value
2023-09-20T00:07:22.496Z,57.94
2023-09-20T00:17:25.076Z,57.97
2023-09-20T00:27:29.036Z,58.65
2023-09-20T00:37:32.029Z,59.20
2023-09-20T00:47:36.027Z,59.77
2023-09-20T00:57:39.434Z,59.46
2023-09-20T01:07:43.600Z,59.63
2023-09-20T01:17:46.773Z,60.00
2023-09-20T01:27:50.943Z,60.22
2023-09-20T01:37:53.735Z,59.95
2023-09-20T01:48:01.868Z,59.90
2023-09-20T01:58:07.104Z,60.63
2023-09-20T02:08:11.144Z,60.19
2023-09-20T02:18:13.747Z,60.76
2023-09-20T02:28:17.981Z,60.81
2023-09-20T02:38:20.528Z,60.25
2023-09-20T02:48:25.859Z,60.51
2023-09-20T02:58:28.341Z,60.75
2023-09-20T03:08:34.690Z,61.45
2023-09-20T03:18:37.183Z,61.52
2023-09-20T03:28:42.431Z,61.11
2023-09-20T03:38:45.373Z,61.40
2023-09-20T03:48:49.228Z,61.36
2023-09-20T03:58:51.668Z,61.27
2023-09-20T04:08:55.627Z,61.75
2023-09-20T04:18:58.459Z,61.84
2023-09-20T04:29:02.401Z,61.60
2023-09-20T04:39:07.534Z,62.37
2023-09-20T04:49:12.018Z,62.21
2023-09-20T04:59:15.547Z,62.65
2023-09-20T05:09:19.320Z,62.37
2023-09-20T05:19:22.032Z,63.61
2023-09-20T05:29:26.812Z,62.90
2023-09-20T05:39:29.306Z,62.34
2023-09-20T05:49:33.389Z,63.05
2023-09-20T05:59:35.823Z,64.27
2023-09-20T06:09:39.611Z,64.70
2023-09-20T06:19:42.014Z,65.51
2023-09-20T06:29:46.166Z,64.84
2023-09-20T06:39:49.055Z,63.79
2023-09-20T06:49:52.824Z,62.33
2023-09-20T06:59:55.619Z,65.04
2023-09-20T07:10:01.594Z,63.46
2023-09-20T07:20:08.834Z,63.48
2023-09-20T07:30:17.188Z,62.14
2023-09-20T07:40:19.752Z,60.36
2023-09-20T07:50:23.580Z,58.68
2023-09-20T08:00:27.028Z,58.28
2023-09-20T08:10:30.821Z,60.76
2023-09-20T08:20:36.131Z,59.47
2023-09-20T08:30:57.441Z,60.38
2023-09-20T08:41:17.429Z,58.58
2023-09-20T08:51:40.783Z,58.27
2023-09-20T09:01:46.148Z,57.88
2023-09-20T09:11:50.211Z,58.29
2023-09-20T09:21:52.695Z,57.90
2023-09-20T09:31:57.874Z,56.45
2023-09-20T09:42:01.405Z,56.22
2023-09-20T09:52:05.702Z,55.56
2023-09-20T10:02:14.754Z,53.62
2023-09-20T10:12:20.276Z,54.34
2023-09-20T10:22:23.833Z,52.03
2023-09-20T10:32:30.046Z,52.04
2023-09-20T10:42:33.722Z,51.38
2023-09-20T10:52:54.660Z,48.67
2023-09-20T11:02:58.862Z,47.61
2023-09-20T11:13:02.271Z,45.15
2023-09-20T11:23:06.188Z,44.80
2023-09-20T11:33:09.157Z,42.62
2023-09-20T11:43:13.486Z,40.97
2023-09-20T11:53:16.762Z,39.05
2023-09-20T12:03:20.788Z,37.92
2023-09-20T12:13:24.024Z,36.82
2023-09-20T12:23:28.270Z,36.50
2023-09-20T12:33:31.074Z,35.98
2023-09-20T12:43:34.998Z,35.78
2023-09-20T12:53:37.452Z,35.41
2023-09-20T13:03:43.224Z,35.09
2023-09-20T13:13:46.111Z,35.48
2023-09-20T13:23:49.959Z,35.25
2023-09-20T13:33:52.717Z,34.89
2023-09-20T13:43:56.545Z,38.64
2023-09-20T13:53:59.054Z,34.12
2023-09-20T14:04:03.221Z,35.04
2023-09-20T14:14:06.180Z,35.09
2023-09-20T14:24:10.182Z,35.38
2023-09-20T14:34:12.611Z,36.28
2023-09-20T14:44:17.573Z,34.66
2023-09-20T14:54:20.009Z,34.72
2023-09-20T15:04:23.780Z,35.86
2023-09-20T15:14:27.665Z,35.99
2023-09-20T15:24:31.701Z,36.06
2023-09-20T15:34:34.144Z,36.31
2023-09-20T15:44:37.982Z,35.31
2023-09-20T15:54:41.504Z,36.44
2023-09-20T16:04:45.404Z,36.12
2023-09-20T16:14:48.104Z,37.39
2023-09-20T16:24:52.099Z,37.94
2023-09-20T16:34:56.087Z,37.60
2023-09-20T16:45:00.049Z,38.34
2023-09-20T16:55:02.626Z,39.05
2023-09-20T17:05:06.857Z,40.34
2023-09-20T17:15:09.706Z,42.14
2023-09-20T17:25:14.434Z,42.54
2023-09-20T17:35:17.297Z,42.70
2023-09-20T17:45:21.088Z,42.50
2023-09-20T17:55:23.716Z,45.84
2023-09-20T18:05:27.611Z,44.92
2023-09-20T18:15:31.044Z,46.46
2023-09-20T18:25:39.389Z,46.32
2023-09-20T18:35:42.073Z,46.91
2023-09-20T18:45:45.896Z,47.84
2023-09-20T18:55:49.301Z,48.72
2023-09-20T19:05:53.825Z,49.19
2023-09-20T19:15:56.931Z,49.30
2023-09-20T19:26:00.976Z,49.42
2023-09-20T19:36:04.884Z,50.77
2023-09-20T19:46:11.262Z,50.89
2023-09-20T19:56:16.998Z,51.16
2023-09-20T20:06:20.782Z,51.33
2023-09-20T20:16:23.270Z,52.24
2023-09-20T20:26:27.726Z,52.35
2023-09-20T20:36:30.193Z,52.48
2023-09-20T20:46:34.827Z,52.00
2023-09-20T20:56:40.238Z,52.64
2023-09-20T21:06:45.532Z,53.04
2023-09-20T21:16:48.057Z,53.16
2023-09-20T21:26:53.319Z,53.65
2023-09-20T21:36:57.041Z,54.13
2023-09-20T21:47:00.897Z,54.39
2023-09-20T21:57:03.782Z,54.10
2023-09-20T22:07:09.487Z,54.52
2023-09-20T22:17:12.492Z,54.72
2023-09-20T22:27:17.908Z,55.04
2023-09-20T22:37:21.856Z,55.55
2023-09-20T22:47:27.041Z,55.29
2023-09-20T22:57:29.562Z,56.09
2023-09-20T23:07:33.386Z,56.09
2023-09-20T23:17:38.693Z,56.57
2023-09-20T23:27:46.076Z,56.21
2023-09-20T23:37:50.165Z,56.77
2023-09-20T23:47:55.328Z,57.04
2023-09-20T23:57:58.416Z,57.37
